AirNav   SIMCOM
 
 382 users online  

5P5 Presho Municipal Airport
Presho, South Dakota, USA


FAA INFORMATION EFFECTIVE 09 NOVEMBER 2017

Location

FAA Identifier: 5P5
Lat/Long: 43-54-21.5900N / 100-02-12.0500W
43-54.359833N / 100-02.200833W
43.9059972 / -100.0366806
(estimated)
Elevation: 1760 ft. / 536.4 m (surveyed)
Variation: 09E (1985)
From city: 1 mile E of PRESHO, SD
Time zone: UTC -6 (UTC -5 during Daylight Saving Time)
Zip code: 57568

Airport Operations

Airport use: Open to the public
Control tower: no
ARTCC: MINNEAPOLIS CENTER
FSS: HURON FLIGHT SERVICE STATION
NOTAMs facility: HON (NOTAM-D service available)
Attendance: UNATNDD
Wind indicator: lighted
Segmented circle: no
Lights: ACTVT LIRL RY 10/28 - CTAF.
Beacon: white-green (lighted land airport)
Operates sunset to sunrise.

Airport Communications

CTAF: 122.9

Nearby radio navigation aids

VOR radial/distance  VOR name  Freq  Var
ISDr327/(27.8)WINNER VOR112.8008E
PIRr158/29.8PIERRE VORTAC112.5011E

Airport Services

Parking: tiedowns
Airframe service: NONE
Powerplant service: NONE
Bottled oxygen: NONE
Bulk oxygen: NONE

Runway Information

Runway 10/28

Dimensions: 3350 x 150 ft. / 1021 x 46 m
Surface: turf/gravel, in fair condition
CNTR 52 FT GRAVEL PLUS GRAVEL TURNAROUNDS.
Runway edge lights: low intensity
Runway edge markings: 10/28 MKD WITH BLACK AND WHITE CONES.
Gradient: W
RUNWAY 10  RUNWAY 28
Latitude: 43-54.444167N43-54.275500N
Longitude: 100-02.563833W100-01.837833W
Elevation: 1756.0 ft.1742.0 ft.
Gradient: 0.4%0.4% UP
Traffic pattern: leftleft
Runway heading: 098 magnetic, 107 true278 magnetic, 287 true
Runway end identifier lights: nono
Obstructions: 15 ft. road, 300 ft. from runway, 20:1 slope to clear4 ft. fence, 110 ft. from runway, 27:1 slope to clear

Airport Ownership and Management from official FAA records

Ownership: Publicly-owned
Owner: CITY OF PRESHO
PO BOX 354
PRESHO, SD 57568
Phone 605-895-2337
Manager: DUSTIN SMITH
PO BOX 250
PRESHO, SD 57568
Phone 605-280-4641

Airport Operational Statistics

Aircraft based on the field: 11
Single engine airplanes: 10
Multi engine airplanes: 1
    
Aircraft operations: avg 44/week *
96% local general aviation
4% transient general aviation
* for 12-month period ending 29 April 2015

Additional Remarks

WILDLIFE & WATERFOWL ON & INVOF ARPT.

Instrument Procedures

There are no published instrument procedures at 5P5.

Some nearby airports with instrument procedures:

KPIR - Pierre Regional Airport (31 nm N)
9V9 - Chamberlain Municipal Airport (32 nm E)
KICR - Winner Regional Airport (32 nm S)
9D0 - Highmore Municipal Airport (46 nm NE)
9D1 - Gregory Municipal Airport - Flynn Field (49 nm SE)
 
Loc | Ops | Rwys | IFR | FBO | Links
Com | Nav | Svcs | Stats | Notes


 
Area around 5P5 (Presho Municipal Airport)
 
Road maps at: MapQuest Bing Google
 
Aerial photo
WARNING: Photo may not be current or correct
Aerial photo of 5P5 (Presho Municipal Airport)
Photo by Steve Hamilton
Photo taken 29-Oct-2008

Do you have a better or more recent aerial photo of Presho Municipal Airport that you would like to share? If so, please send us your photo.

 
Sectional chart

 
Airport distance calculator
Flying to Presho Municipal Airport? Find the distance to fly.

From to 5P5

Sunrise and sunset
Times for 20-Nov-2017
 Local
(UTC-6)
 Zulu
(UTC)
Morning civil twilight07:1113:11
Sunrise07:4213:42
Sunset17:0923:09
Evening civil twilight17:4123:41

Current date and time
Zulu (UTC)  20-Nov-2017 09:19:16
Local (UTC-6)  20-Nov-2017 03:19:16
 
METAR
KPIR 
31nm N 
200853Z AUTO 25005KT 10SM CLR M02/M06 A2961 RMK AO2 SLP037 T10171061 58016
KICR 
32nm S 
200853Z AUTO 23011KT 10SM CLR 03/M07 A2965 RMK AO2 SLP044 T00331067 58016
K9V9 
32nm E 
200855Z AUTO 21004KT 10SM CLR M01/M05 A2964 RMK AO2 T10111053
9D0 
46nm NE 
SuperAWOS
200855Z AUTO 22006KT 10SM 01/M08 A2961
98D 
48nm N 
SuperAWOS
200915Z AUTO 00000KT 10SM 00/M06 A2968
9D1 
49nm SE 
SuperAWOS
200855Z AUTO 00000KT 10SM 01/M07 A2976
TAF
KPIR 
31nm N 
200529Z 2006/2106 18006KT P6SM SCT250 FM201700 27011KT P6SM SCT250 FM210300 32014KT P6SM BKN110
NOTAMs
Click for the latest NOTAMs
NOTAMs are issued by the DoD/FAA and will open in a separate window not controlled by AirNav.

 

 
 

Would you like to see your business listed on this page?

 If your business provides an interesting product or service to pilots, flight crews, aircraft, or users of the Presho Municipal Airport, you should consider listing it here.  To start the listing process, click on the button below
 
Add a business
 

Other Pages about Presho Municipal Airport

Update a link
 
Copyright © AirNav, LLC. All rights reserved. Privacy Policy  Contact